sensor_id;sensor_type;location;lat;lon;timestamp;P1;P2;P0
77354;PMS7003;66422;51.202;19.936;2023-04-15T00:04:40;24.00;20.33;15.00
77354;PMS7003;66422;51.202;19.936;2023-04-15T00:19:59;20.50;18.00;14.50
77354;PMS7003;66422;51.202;19.936;2023-04-15T00:35:19;21.00;20.00;16.00
77354;PMS7003;66422;51.202;19.936;2023-04-15T00:50:39;30.50;22.50;14.50
77354;PMS7003;66422;51.202;19.936;2023-04-15T01:05:59;25.67;23.33;16.00
77354;PMS7003;66422;51.202;19.936;2023-04-15T01:21:19;22.50;20.50;16.00
77354;PMS7003;66422;51.202;19.936;2023-04-15T01:36:40;22.00;21.00;15.00
77354;PMS7003;66422;51.202;19.936;2023-04-15T01:52:00;21.00;21.00;14.00
77354;PMS7003;66422;51.202;19.936;2023-04-15T02:07:20;26.00;18.00;14.00
77354;PMS7003;66422;51.202;19.936;2023-04-15T02:22:40;18.33;18.33;13.33
77354;PMS7003;66422;51.202;19.936;2023-04-15T02:38:00;20.50;15.50;11.50
77354;PMS7003;66422;51.202;19.936;2023-04-15T02:53:21;19.50;14.50;11.00
77354;PMS7003;66422;51.202;19.936;2023-04-15T03:08:41;20.33;17.67;14.00
77354;PMS7003;66422;51.202;19.936;2023-04-15T03:24:00;23.50;20.50;15.50
77354;PMS7003;66422;51.202;19.936;2023-04-15T03:39:21;22.00;17.00;14.00
77354;PMS7003;66422;51.202;19.936;2023-04-15T03:54:40;23.33;17.33;14.33
77354;PMS7003;66422;51.202;19.936;2023-04-15T04:10:00;23.67;17.67;14.00
77354;PMS7003;66422;51.202;19.936;2023-04-15T04:25:19;15.67;15.00;13.00
77354;PMS7003;66422;51.202;19.936;2023-04-15T04:40:39;17.50;16.00;12.00
77354;PMS7003;66422;51.202;19.936;2023-04-15T04:55:59;11.00;11.00;10.00
77354;PMS7003;66422;51.202;19.936;2023-04-15T05:11:18;17.00;15.00;10.50
77354;PMS7003;66422;51.202;19.936;2023-04-15T05:26:38;16.50;13.50;10.50
77354;PMS7003;66422;51.202;19.936;2023-04-15T05:41:58;15.50;13.25;11.25
77354;PMS7003;66422;51.202;19.936;2023-04-15T05:57:18;10.00;10.00;8.67
77354;PMS7003;66422;51.202;19.936;2023-04-15T06:12:38;12.67;11.00;9.00
77354;PMS7003;66422;51.202;19.936;2023-04-15T06:27:57;13.00;11.00;9.00
77354;PMS7003;66422;51.202;19.936;2023-04-15T06:43:17;16.50;12.50;9.00
77354;PMS7003;66422;51.202;19.936;2023-04-15T06:58:38;14.67;14.00;12.00
77354;PMS7003;66422;51.202;19.936;2023-04-15T07:13:58;11.50;9.50;7.50
77354;PMS7003;66422;51.202;19.936;2023-04-15T07:29:17;11.00;9.00;8.00
77354;PMS7003;66422;51.202;19.936;2023-04-15T07:44:37;10.75;10.75;8.75
77354;PMS7003;66422;51.202;19.936;2023-04-15T07:59:56;22.00;15.50;13.50
77354;PMS7003;66422;51.202;19.936;2023-04-15T08:15:16;35.00;29.67;20.33
77354;PMS7003;66422;51.202;19.936;2023-04-15T08:30:36;8.00;6.00;5.00
77354;PMS7003;66422;51.202;19.936;2023-04-15T08:45:56;6.00;6.00;5.00
77354;PMS7003;66422;51.202;19.936;2023-04-15T09:01:19;10.33;8.33;7.67
77354;PMS7003;66422;51.202;19.936;2023-04-15T09:32:46;13.00;9.00;7.00
77354;PMS7003;66422;51.202;19.936;2023-04-15T09:48:15;7.00;7.00;6.00
77354;PMS7003;66422;51.202;19.936;2023-04-15T10:03:45;8.33;7.33;6.00
77354;PMS7003;66422;51.202;19.936;2023-04-15T10:19:05;7.00;7.00;5.75
77354;PMS7003;66422;51.202;19.936;2023-04-15T10:34:27;5.00;5.00;5.00
77354;PMS7003;66422;51.202;19.936;2023-04-15T10:49:50;5.67;5.33;4.67
77354;PMS7003;66422;51.202;19.936;2023-04-15T11:05:11;7.00;6.00;5.50
77354;PMS7003;66422;51.202;19.936;2023-04-15T11:20:35;9.00;7.00;6.00
77354;PMS7003;66422;51.202;19.936;2023-04-15T11:35:55;6.00;5.33;4.00
77354;PMS7003;66422;51.202;19.936;2023-04-15T11:51:15;7.00;6.00;5.50
77354;PMS7003;66422;51.202;19.936;2023-04-15T12:06:35;8.00;6.00;5.00
77354;PMS7003;66422;51.202;19.936;2023-04-15T12:22:03;9.50;8.00;7.00
77354;PMS7003;66422;51.202;19.936;2023-04-15T12:37:25;8.00;6.00;5.50
77354;PMS7003;66422;51.202;19.936;2023-04-15T12:52:44;8.00;7.00;5.00
77354;PMS7003;66422;51.202;19.936;2023-04-15T13:08:04;8.00;8.00;7.00
77354;PMS7003;66422;51.202;19.936;2023-04-15T13:23:24;7.00;4.00;3.00
77354;PMS7003;66422;51.202;19.936;2023-04-15T13:38:45;11.25;8.00;6.00
77354;PMS7003;66422;51.202;19.936;2023-04-15T13:54:04;7.00;7.00;6.00
77354;PMS7003;66422;51.202;19.936;2023-04-15T14:09:25;8.00;7.75;6.00
77354;PMS7003;66422;51.202;19.936;2023-04-15T14:24:44;7.67;5.67;5.00
77354;PMS7003;66422;51.202;19.936;2023-04-15T14:40:04;6.00;6.00;5.00
77354;PMS7003;66422;51.202;19.936;2023-04-15T14:55:25;12.00;12.00;9.00
77354;PMS7003;66422;51.202;19.936;2023-04-15T15:10:44;13.00;12.00;8.00
77354;PMS7003;66422;51.202;19.936;2023-04-15T15:26:04;22.00;17.00;13.67
77354;PMS7003;66422;51.202;19.936;2023-04-15T15:41:24;22.75;17.00;13.25
77354;PMS7003;66422;51.202;19.936;2023-04-15T15:56:45;24.00;19.00;14.00
77354;PMS7003;66422;51.202;19.936;2023-04-15T16:12:04;15.25;13.50;11.00
77354;PMS7003;66422;51.202;19.936;2023-04-15T16:27:25;23.00;18.00;12.00
77354;PMS7003;66422;51.202;19.936;2023-04-15T16:42:45;13.50;10.00;8.00
77354;PMS7003;66422;51.202;19.936;2023-04-15T16:58:05;15.67;14.67;10.33
77354;PMS7003;66422;51.202;19.936;2023-04-15T17:13:24;21.00;17.00;14.00
77354;PMS7003;66422;51.202;19.936;2023-04-15T17:28:45;35.50;30.00;21.00
77354;PMS7003;66422;51.202;19.936;2023-04-15T17:44:04;31.00;27.00;20.00
77354;PMS7003;66422;51.202;19.936;2023-04-15T17:59:24;26.00;23.00;17.00
77354;PMS7003;66422;51.202;19.936;2023-04-15T18:14:44;25.33;22.00;15.00
77354;PMS7003;66422;51.202;19.936;2023-04-15T18:30:07;24.00;21.50;16.00
77354;PMS7003;66422;51.202;19.936;2023-04-15T18:45:28;18.00;16.00;11.67
77354;PMS7003;66422;51.202;19.936;2023-04-15T19:00:49;15.00;10.00;7.00
77354;PMS7003;66422;51.202;19.936;2023-04-15T19:16:09;9.00;9.00;7.50
77354;PMS7003;66422;51.202;19.936;2023-04-15T19:31:28;16.00;11.00;8.00
77354;PMS7003;66422;51.202;19.936;2023-04-15T19:46:48;15.00;11.00;9.00
77354;PMS7003;66422;51.202;19.936;2023-04-15T20:02:09;13.00;12.75;8.75
77354;PMS7003;66422;51.202;19.936;2023-04-15T20:17:32;17.00;14.33;10.33
77354;PMS7003;66422;51.202;19.936;2023-04-15T20:32:52;19.50;13.00;10.00
77354;PMS7003;66422;51.202;19.936;2023-04-15T20:48:12;21.00;14.00;10.00
77354;PMS7003;66422;51.202;19.936;2023-04-15T21:03:32;18.00;10.00;9.00
77354;PMS7003;66422;51.202;19.936;2023-04-15T21:18:52;17.00;14.00;10.00
77354;PMS7003;66422;51.202;19.936;2023-04-15T21:34:12;15.00;10.00;8.00
77354;PMS7003;66422;51.202;19.936;2023-04-15T21:49:32;28.00;12.00;10.00
77354;PMS7003;66422;51.202;19.936;2023-04-15T22:04:52;15.50;14.50;12.00
77354;PMS7003;66422;51.202;19.936;2023-04-15T22:20:12;24.00;15.00;10.50
77354;PMS7003;66422;51.202;19.936;2023-04-15T22:35:32;22.50;17.50;12.00
77354;PMS7003;66422;51.202;19.936;2023-04-15T22:50:52;19.67;16.00;10.33
77354;PMS7003;66422;51.202;19.936;2023-04-15T23:06:12;21.67;19.00;14.33
77354;PMS7003;66422;51.202;19.936;2023-04-15T23:21:32;25.50;19.50;12.50
77354;PMS7003;66422;51.202;19.936;2023-04-15T23:36:52;25.50;20.00;13.00
77354;PMS7003;66422;51.202;19.936;2023-04-15T23:52:12;26.00;18.00;13.00
